Terminal Aerodrome Forecast
Issued by NWS Mt. Holly, NJ

Home | Current Version | Previous Version | Text Only | Print | Product List | Glossary On
Versions: 1 2 3 4 5 6 7 8 9 10 11 12 13 14
000
FTUS41 KPHI 202300
TAFACY
TAF
KACY 202320Z 2100/2124 13008KT P6SM BKN080
     FM210600 12004KT P6SM BKN050
     FM211500 14008KT P6SM SCT040 BKN100
     FM212200 15008KT P6SM VCSH BKN040=

USA.gov is the U.S. government's official web portal to all federal, state and local government web resources and services.